This is the latest recevied weather packets stored in our database for station/object OK1FET-15. If no packets are shown the sender has not sent any weather packets the latest 10 day(s).
| Time | Temp. | Humidity | Pressure | Rain* | Wind** | Luminosity | Snow |
|---|---|---|---|---|---|---|---|
| 1777446210 | 10.56° C | 35% | 1024.3 hPa | - | - | - | - |
| 1777445902 | 10.56° C | 36% | 1024.3 hPa | - | - | - | - |
| 1777445596 | 10.56° C | 35% | 1024.3 hPa | - | - | - | - |
| 1777445288 | 10.56° C | 36% | 1024.2 hPa | - | - | - | - |
| 1777444981 | 10° C | 37% | 1024.2 hPa | - | - | - | - |
| 1777444674 | 10° C | 39% | 1024.2 hPa | - | - | - | - |
| 1777444367 | 9.44° C | 40% | 1024.2 hPa | - | - | - | - |
| 1777444060 | 8.89° C | 41% | 1024.2 hPa | - | - | - | - |
| 1777443753 | 8.33° C | 42% | 1024.2 hPa | - | - | - | - |
| 1777443429 | 8.33° C | 43% | 1024.1 hPa | - | - | - | - |
| 1777443104 | 7.78° C | 44% | 1024 hPa | - | - | - | - |
| 1777442780 | 7.22° C | 45% | 1024.1 hPa | - | - | - | - |
| 1777442456 | 7.22° C | 47% | 1024.1 hPa | - | - | - | - |
| 1777442131 | 6.67° C | 49% | 1024.1 hPa | - | - | - | - |
| 1777399195 | 12.22° C | 39% | 1019.2 hPa | - | - | - | - |
| 1777398870 | 12.22° C | 39% | 1019.2 hPa | - | - | - | - |
| 1777398546 | 12.78° C | 38% | 1019.2 hPa | - | - | - | - |
| 1777398221 | 12.78° C | 38% | 1019 hPa | - | - | - | - |
| 1777397897 | 12.78° C | 37% | 1019 hPa | - | - | - | - |
| 1777397572 | 13.33° C | 37% | 1018.8 hPa | - | - | - | - |
| 1777397265 | 13.33° C | 36% | 1018.7 hPa | - | - | - | - |
| 1777396957 | 13.33° C | 35% | 1018.6 hPa | - | - | - | - |
| 1777396650 | 13.33° C | 34% | 1018.6 hPa | - | - | - | - |
| 1777396343 | 13.89° C | 34% | 1018.6 hPa | - | - | - | - |
| 1777396035 | 13.89° C | 33% | 1018.5 hPa | - | - | - | - |
* Rain since midnight (hover to see other rain measurements)
** Current wind speed in m/s (hover to see current wind gust speed)